Apache Junction, Arizona
Current Conditions -  °F | °C
As of 9:47 AM on Tuesday 21 Oct 2014 (Local Time) from KIWA Reporting Station
Few Clouds Few Clouds  
Wind Chill: 26°   Ceiling: Unl
Heat Index: 26°   Visibility: 45mi
Dew Point: 12°   Wind: 0mph
Humidity: 42%   Direction: NA
Pressure: 29.94"   Gusts: NA
Location:  33.42°N, 111.54°W
Report Text: KIWA 211647Z 00000KT 45SM FEW200 26/12 A2994
Loading
Personal Weather Stations






























Interactive Weather Map New forecast layout! Learn more

10-Day Weather Forecast

Advertisements
Track Severe Weather on mobile